Terminal Aerodrome Forecast
Issued by NWS

Home | Current Version | Previous Version | Text Only | Print | Product List | Glossary On
Versions: 1 2 3 4 5 6 7 8 9 10 11 12 13 14 15 16
113
FTUS46 KHNX 132331
TAFFAT
TAF
KFAT 132331Z 1400/1424 VRB05KT 4SM HZ SCT200
     FM140600 VRB03KT 3SM BR SKC
      TEMPO 1410/1414 2SM BR
     FM141800 VRB04KT 4SM HZ SKC=

USA.gov is the U.S. government's official web portal to all federal, state and local government web resources and services.